sensor_id;sensor_type;location;lat;lon;timestamp;temperature;humidity
24103;DHT22;12278;53.058;9.028;2023-02-26T00:01:21;-0.30;99.90
24103;DHT22;12278;53.058;9.028;2023-02-26T00:05:21;-0.40;99.90
24103;DHT22;12278;53.058;9.028;2023-02-26T00:09:22;-0.30;99.90
24103;DHT22;12278;53.058;9.028;2023-02-26T00:13:23;-0.40;99.90
24103;DHT22;12278;53.058;9.028;2023-02-26T00:17:51;-0.40;99.90
24103;DHT22;12278;53.058;9.028;2023-02-26T00:21:53;-0.30;99.90
24103;DHT22;12278;53.058;9.028;2023-02-26T00:25:54;-0.40;99.90
24103;DHT22;12278;53.058;9.028;2023-02-26T00:29:57;-0.40;99.90
24103;DHT22;12278;53.058;9.028;2023-02-26T00:33:58;-0.50;99.90
24103;DHT22;12278;53.058;9.028;2023-02-26T00:38:08;-0.60;99.90
24103;DHT22;12278;53.058;9.028;2023-02-26T00:42:10;-0.60;99.90
24103;DHT22;12278;53.058;9.028;2023-02-26T00:50:45;-0.50;99.90
24103;DHT22;12278;53.058;9.028;2023-02-26T00:54:49;-0.60;99.90
24103;DHT22;12278;53.058;9.028;2023-02-26T00:58:49;-0.60;99.90
24103;DHT22;12278;53.058;9.028;2023-02-26T01:02:50;-0.70;99.90
24103;DHT22;12278;53.058;9.028;2023-02-26T01:06:54;-0.60;99.90
24103;DHT22;12278;53.058;9.028;2023-02-26T01:10:55;-0.70;99.90
24103;DHT22;12278;53.058;9.028;2023-02-26T01:14:56;-0.70;99.90
24103;DHT22;12278;53.058;9.028;2023-02-26T01:19:39;-0.70;99.90
24103;DHT22;12278;53.058;9.028;2023-02-26T01:23:42;-0.60;99.90
24103;DHT22;12278;53.058;9.028;2023-02-26T01:27:53;-0.60;99.90
24103;DHT22;12278;53.058;9.028;2023-02-26T01:32:06;-0.70;99.90
24103;DHT22;12278;53.058;9.028;2023-02-26T01:36:24;-0.60;99.90
24103;DHT22;12278;53.058;9.028;2023-02-26T01:45:11;-0.70;99.90
24103;DHT22;12278;53.058;9.028;2023-02-26T01:49:15;-0.70;99.90
24103;DHT22;12278;53.058;9.028;2023-02-26T01:53:24;-0.70;99.90
24103;DHT22;12278;53.058;9.028;2023-02-26T01:57:25;-0.80;99.90
24103;DHT22;12278;53.058;9.028;2023-02-26T02:01:26;-0.80;99.90
24103;DHT22;12278;53.058;9.028;2023-02-26T02:05:31;-0.70;99.90
24103;DHT22;12278;53.058;9.028;2023-02-26T02:09:33;-0.80;99.90
24103;DHT22;12278;53.058;9.028;2023-02-26T02:22:00;-0.80;99.90
24103;DHT22;12278;53.058;9.028;2023-02-26T02:31:04;-1.00;99.90
24103;DHT22;12278;53.058;9.028;2023-02-26T02:35:19;-1.00;99.90
24103;DHT22;12278;53.058;9.028;2023-02-26T02:39:37;-1.10;99.90
24103;DHT22;12278;53.058;9.028;2023-02-26T02:43:42;-1.10;99.90
24103;DHT22;12278;53.058;9.028;2023-02-26T02:47:54;-1.10;99.90
24103;DHT22;12278;53.058;9.028;2023-02-26T02:56:49;-1.10;99.90
24103;DHT22;12278;53.058;9.028;2023-02-26T03:00:55;-1.10;99.90
24103;DHT22;12278;53.058;9.028;2023-02-26T03:04:57;-1.20;99.90
24103;DHT22;12278;53.058;9.028;2023-02-26T03:08:59;-1.10;99.90
24103;DHT22;12278;53.058;9.028;2023-02-26T03:17:45;-1.20;99.90
24103;DHT22;12278;53.058;9.028;2023-02-26T03:26:55;-1.20;99.90
24103;DHT22;12278;53.058;9.028;2023-02-26T03:39:54;-1.30;99.90
24103;DHT22;12278;53.058;9.028;2023-02-26T03:44:19;-1.30;99.90
24103;DHT22;12278;53.058;9.028;2023-02-26T03:48:25;-1.30;99.90
24103;DHT22;12278;53.058;9.028;2023-02-26T03:52:29;-1.30;99.90
24103;DHT22;12278;53.058;9.028;2023-02-26T03:56:41;-1.30;99.90
24103;DHT22;12278;53.058;9.028;2023-02-26T04:00:46;-1.30;99.90
24103;DHT22;12278;53.058;9.028;2023-02-26T04:05:02;-1.30;99.90
24103;DHT22;12278;53.058;9.028;2023-02-26T04:09:06;-1.30;99.90
24103;DHT22;12278;53.058;9.028;2023-02-26T04:13:07;-1.30;99.90
24103;DHT22;12278;53.058;9.028;2023-02-26T04:17:07;-1.30;99.90
24103;DHT22;12278;53.058;9.028;2023-02-26T04:25:38;-1.30;99.90
24103;DHT22;12278;53.058;9.028;2023-02-26T04:29:39;-1.40;99.90
24103;DHT22;12278;53.058;9.028;2023-02-26T04:33:40;-1.40;99.90
24103;DHT22;12278;53.058;9.028;2023-02-26T04:37:41;-1.40;99.90
24103;DHT22;12278;53.058;9.028;2023-02-26T04:41:42;-1.50;99.90
24103;DHT22;12278;53.058;9.028;2023-02-26T04:45:47;-1.50;99.90
24103;DHT22;12278;53.058;9.028;2023-02-26T04:49:48;-1.50;99.90
24103;DHT22;12278;53.058;9.028;2023-02-26T04:54:01;-1.50;99.90
24103;DHT22;12278;53.058;9.028;2023-02-26T04:58:02;-1.40;99.90
24103;DHT22;12278;53.058;9.028;2023-02-26T05:02:03;-1.40;99.90
24103;DHT22;12278;53.058;9.028;2023-02-26T05:06:06;-1.50;99.90
24103;DHT22;12278;53.058;9.028;2023-02-26T05:10:07;-1.50;99.90
24103;DHT22;12278;53.058;9.028;2023-02-26T05:14:08;-1.50;99.90
24103;DHT22;12278;53.058;9.028;2023-02-26T05:18:09;-1.50;99.90
24103;DHT22;12278;53.058;9.028;2023-02-26T05:22:11;-1.50;99.90
24103;DHT22;12278;53.058;9.028;2023-02-26T05:26:11;-1.50;99.90
24103;DHT22;12278;53.058;9.028;2023-02-26T05:30:14;-1.50;99.90
24103;DHT22;12278;53.058;9.028;2023-02-26T05:34:14;-1.50;99.90
24103;DHT22;12278;53.058;9.028;2023-02-26T05:38:15;-1.60;99.90
24103;DHT22;12278;53.058;9.028;2023-02-26T05:42:16;-1.60;99.90
24103;DHT22;12278;53.058;9.028;2023-02-26T05:46:22;-1.70;99.90
24103;DHT22;12278;53.058;9.028;2023-02-26T05:50:22;-1.70;99.90
24103;DHT22;12278;53.058;9.028;2023-02-26T05:54:23;-1.70;99.90
24103;DHT22;12278;53.058;9.028;2023-02-26T05:58:24;-1.70;99.90
24103;DHT22;12278;53.058;9.028;2023-02-26T06:02:25;-1.70;99.90
24103;DHT22;12278;53.058;9.028;2023-02-26T06:06:26;-1.70;99.90
24103;DHT22;12278;53.058;9.028;2023-02-26T06:10:33;-1.80;99.90
24103;DHT22;12278;53.058;9.028;2023-02-26T06:14:45;-1.70;99.90
24103;DHT22;12278;53.058;9.028;2023-02-26T06:18:47;-1.80;99.90
24103;DHT22;12278;53.058;9.028;2023-02-26T06:22:47;-1.80;99.90
24103;DHT22;12278;53.058;9.028;2023-02-26T06:26:48;-1.80;99.90
24103;DHT22;12278;53.058;9.028;2023-02-26T06:30:52;-1.70;99.90
24103;DHT22;12278;53.058;9.028;2023-02-26T06:34:54;-1.70;99.90
24103;DHT22;12278;53.058;9.028;2023-02-26T06:38:57;-1.70;99.90
24103;DHT22;12278;53.058;9.028;2023-02-26T06:42:58;-1.70;99.90
24103;DHT22;12278;53.058;9.028;2023-02-26T06:46:59;-1.60;99.90
24103;DHT22;12278;53.058;9.028;2023-02-26T06:51:14;-1.50;99.90
24103;DHT22;12278;53.058;9.028;2023-02-26T06:55:15;-1.40;99.90
24103;DHT22;12278;53.058;9.028;2023-02-26T06:59:16;-1.50;99.90
24103;DHT22;12278;53.058;9.028;2023-02-26T07:03:17;-1.40;99.90
24103;DHT22;12278;53.058;9.028;2023-02-26T07:07:23;-1.10;99.90
24103;DHT22;12278;53.058;9.028;2023-02-26T07:11:23;-0.40;99.90
24103;DHT22;12278;53.058;9.028;2023-02-26T07:15:24;0.10;99.90
24103;DHT22;12278;53.058;9.028;2023-02-26T07:19:25;0.50;99.90
24103;DHT22;12278;53.058;9.028;2023-02-26T07:23:26;0.70;99.90
24103;DHT22;12278;53.058;9.028;2023-02-26T07:27:32;0.90;99.90
24103;DHT22;12278;53.058;9.028;2023-02-26T07:31:33;1.00;99.90
24103;DHT22;12278;53.058;9.028;2023-02-26T07:35:42;1.40;99.90
24103;DHT22;12278;53.058;9.028;2023-02-26T07:39:42;1.60;99.90
24103;DHT22;12278;53.058;9.028;2023-02-26T07:43:43;1.60;99.90
24103;DHT22;12278;53.058;9.028;2023-02-26T07:47:44;1.50;99.90
24103;DHT22;12278;53.058;9.028;2023-02-26T07:51:44;1.70;99.90
24103;DHT22;12278;53.058;9.028;2023-02-26T07:55:46;1.50;99.90
24103;DHT22;12278;53.058;9.028;2023-02-26T07:59:47;1.60;99.90
24103;DHT22;12278;53.058;9.028;2023-02-26T08:03:48;2.10;99.90
24103;DHT22;12278;53.058;9.028;2023-02-26T08:07:48;2.60;99.90
24103;DHT22;12278;53.058;9.028;2023-02-26T08:11:49;3.10;99.90
24103;DHT22;12278;53.058;9.028;2023-02-26T08:15:57;3.50;99.90
24103;DHT22;12278;53.058;9.028;2023-02-26T08:20:10;4.10;99.90
24103;DHT22;12278;53.058;9.028;2023-02-26T08:24:11;4.90;99.90
24103;DHT22;12278;53.058;9.028;2023-02-26T08:28:12;5.50;99.90
24103;DHT22;12278;53.058;9.028;2023-02-26T08:32:13;6.00;99.90
24103;DHT22;12278;53.058;9.028;2023-02-26T08:36:15;5.50;99.90
24103;DHT22;12278;53.058;9.028;2023-02-26T08:40:15;5.80;99.90
24103;DHT22;12278;53.058;9.028;2023-02-26T08:44:16;6.20;99.90
24103;DHT22;12278;53.058;9.028;2023-02-26T08:48:27;6.50;99.90
24103;DHT22;12278;53.058;9.028;2023-02-26T08:52:28;6.30;99.90
24103;DHT22;12278;53.058;9.028;2023-02-26T08:56:28;5.80;99.90
24103;DHT22;12278;53.058;9.028;2023-02-26T09:00:32;5.60;99.90
24103;DHT22;12278;53.058;9.028;2023-02-26T09:04:35;5.50;99.90
24103;DHT22;12278;53.058;9.028;2023-02-26T09:08:41;5.50;99.90
24103;DHT22;12278;53.058;9.028;2023-02-26T09:12:51;5.70;99.90
24103;DHT22;12278;53.058;9.028;2023-02-26T09:16:54;5.00;99.90
24103;DHT22;12278;53.058;9.028;2023-02-26T09:20:58;5.10;99.90
24103;DHT22;12278;53.058;9.028;2023-02-26T09:24:58;5.30;99.90
24103;DHT22;12278;53.058;9.028;2023-02-26T09:28:59;5.20;99.90
24103;DHT22;12278;53.058;9.028;2023-02-26T09:33:08;5.30;99.90
24103;DHT22;12278;53.058;9.028;2023-02-26T09:37:14;5.50;99.90
24103;DHT22;12278;53.058;9.028;2023-02-26T09:41:20;5.70;99.90
24103;DHT22;12278;53.058;9.028;2023-02-26T09:45:37;5.90;99.90
24103;DHT22;12278;53.058;9.028;2023-02-26T09:54:20;5.90;99.90
24103;DHT22;12278;53.058;9.028;2023-02-26T09:58:28;6.20;99.90
24103;DHT22;12278;53.058;9.028;2023-02-26T10:07:01;5.80;99.90
24103;DHT22;12278;53.058;9.028;2023-02-26T10:15:34;6.20;99.90
24103;DHT22;12278;53.058;9.028;2023-02-26T10:19:41;6.60;99.90
24103;DHT22;12278;53.058;9.028;2023-02-26T10:37:18;6.80;99.90
24103;DHT22;12278;53.058;9.028;2023-02-26T10:41:24;7.10;99.90
24103;DHT22;12278;53.058;9.028;2023-02-26T10:45:47;6.40;99.90
24103;DHT22;12278;53.058;9.028;2023-02-26T10:50:04;6.40;99.80
24103;DHT22;12278;53.058;9.028;2023-02-26T10:58:24;6.80;99.90
24103;DHT22;12278;53.058;9.028;2023-02-26T11:11:04;7.40;99.00
24103;DHT22;12278;53.058;9.028;2023-02-26T11:15:05;7.50;99.40
24103;DHT22;12278;53.058;9.028;2023-02-26T11:19:06;7.10;99.60
24103;DHT22;12278;53.058;9.028;2023-02-26T11:23:13;7.80;99.20
24103;DHT22;12278;53.058;9.028;2023-02-26T11:27:30;7.00;99.40
24103;DHT22;12278;53.058;9.028;2023-02-26T11:31:32;6.70;99.40
24103;DHT22;12278;53.058;9.028;2023-02-26T11:35:33;5.80;99.90
24103;DHT22;12278;53.058;9.028;2023-02-26T11:39:37;7.80;99.80
24103;DHT22;12278;53.058;9.028;2023-02-26T11:43:41;9.30;96.70
24103;DHT22;12278;53.058;9.028;2023-02-26T11:47:43;10.50;94.40
24103;DHT22;12278;53.058;9.028;2023-02-26T11:52:00;11.10;93.00
24103;DHT22;12278;53.058;9.028;2023-02-26T11:56:14;10.80;92.30
24103;DHT22;12278;53.058;9.028;2023-02-26T12:00:23;9.80;93.30
24103;DHT22;12278;53.058;9.028;2023-02-26T12:04:25;9.20;95.90
24103;DHT22;12278;53.058;9.028;2023-02-26T12:08:51;9.20;95.90
24103;DHT22;12278;53.058;9.028;2023-02-26T12:13:15;8.70;95.10
24103;DHT22;12278;53.058;9.028;2023-02-26T12:17:58;9.80;94.20
24103;DHT22;12278;53.058;9.028;2023-02-26T12:26:31;10.70;93.50
24103;DHT22;12278;53.058;9.028;2023-02-26T12:35:29;10.90;93.20
24103;DHT22;12278;53.058;9.028;2023-02-26T12:44:02;8.10;95.20
24103;DHT22;12278;53.058;9.028;2023-02-26T13:19:43;9.00;97.00
24103;DHT22;12278;53.058;9.028;2023-02-26T13:27:54;10.40;92.80
24103;DHT22;12278;53.058;9.028;2023-02-26T13:31:59;9.60;95.30
24103;DHT22;12278;53.058;9.028;2023-02-26T13:36:01;8.60;97.10
24103;DHT22;12278;53.058;9.028;2023-02-26T13:57:47;6.70;99.10
24103;DHT22;12278;53.058;9.028;2023-02-26T14:11:03;7.80;99.40
24103;DHT22;12278;53.058;9.028;2023-02-26T14:15:19;7.50;98.40
24103;DHT22;12278;53.058;9.028;2023-02-26T14:23:37;6.40;99.90
24103;DHT22;12278;53.058;9.028;2023-02-26T14:27:41;6.20;99.90
24103;DHT22;12278;53.058;9.028;2023-02-26T14:35:54;11.40;92.70
24103;DHT22;12278;53.058;9.028;2023-02-26T14:44:24;13.90;84.20
24103;DHT22;12278;53.058;9.028;2023-02-26T14:48:30;15.10;80.70
24103;DHT22;12278;53.058;9.028;2023-02-26T14:52:41;15.10;76.80
24103;DHT22;12278;53.058;9.028;2023-02-26T14:57:02;14.50;76.60
24103;DHT22;12278;53.058;9.028;2023-02-26T15:05:36;16.80;71.70
24103;DHT22;12278;53.058;9.028;2023-02-26T15:19:23;14.00;73.30
24103;DHT22;12278;53.058;9.028;2023-02-26T15:23:46;11.70;74.40
24103;DHT22;12278;53.058;9.028;2023-02-26T15:27:48;10.30;81.70
24103;DHT22;12278;53.058;9.028;2023-02-26T15:31:54;10.70;85.00
24103;DHT22;12278;53.058;9.028;2023-02-26T15:35:58;10.90;83.10
24103;DHT22;12278;53.058;9.028;2023-02-26T15:39:59;11.10;82.70
24103;DHT22;12278;53.058;9.028;2023-02-26T15:44:15;11.40;83.80
24103;DHT22;12278;53.058;9.028;2023-02-26T15:48:26;12.10;83.20
24103;DHT22;12278;53.058;9.028;2023-02-26T15:52:27;11.80;81.20
24103;DHT22;12278;53.058;9.028;2023-02-26T15:56:33;11.70;80.90
24103;DHT22;12278;53.058;9.028;2023-02-26T16:00:36;11.30;81.00
24103;DHT22;12278;53.058;9.028;2023-02-26T16:04:40;11.40;80.50
24103;DHT22;12278;53.058;9.028;2023-02-26T16:08:41;11.10;83.30
24103;DHT22;12278;53.058;9.028;2023-02-26T16:12:43;9.60;86.50
24103;DHT22;12278;53.058;9.028;2023-02-26T16:16:53;7.50;91.50
24103;DHT22;12278;53.058;9.028;2023-02-26T16:20:58;6.50;95.50
24103;DHT22;12278;53.058;9.028;2023-02-26T16:25:49;6.10;97.50
24103;DHT22;12278;53.058;9.028;2023-02-26T16:29:50;5.70;99.00
24103;DHT22;12278;53.058;9.028;2023-02-26T16:34:00;5.20;99.90
24103;DHT22;12278;53.058;9.028;2023-02-26T16:38:11;5.00;99.90
24103;DHT22;12278;53.058;9.028;2023-02-26T16:42:15;4.70;99.90
24103;DHT22;12278;53.058;9.028;2023-02-26T16:50:36;4.10;99.90
24103;DHT22;12278;53.058;9.028;2023-02-26T16:54:40;3.90;99.90
24103;DHT22;12278;53.058;9.028;2023-02-26T16:59:21;3.70;99.90
24103;DHT22;12278;53.058;9.028;2023-02-26T17:03:23;3.60;99.90
24103;DHT22;12278;53.058;9.028;2023-02-26T17:07:34;3.50;99.90
24103;DHT22;12278;53.058;9.028;2023-02-26T17:11:47;3.40;99.90
24103;DHT22;12278;53.058;9.028;2023-02-26T17:15:48;3.20;99.90
24103;DHT22;12278;53.058;9.028;2023-02-26T17:19:50;3.00;99.90
24103;DHT22;12278;53.058;9.028;2023-02-26T17:23:52;3.10;99.90
24103;DHT22;12278;53.058;9.028;2023-02-26T17:27:53;3.10;99.90
24103;DHT22;12278;53.058;9.028;2023-02-26T17:31:54;3.20;99.90
24103;DHT22;12278;53.058;9.028;2023-02-26T17:35:58;3.30;99.90
24103;DHT22;12278;53.058;9.028;2023-02-26T17:39:59;3.40;99.90
24103;DHT22;12278;53.058;9.028;2023-02-26T17:44:00;3.40;99.90
24103;DHT22;12278;53.058;9.028;2023-02-26T17:48:00;3.60;99.90
24103;DHT22;12278;53.058;9.028;2023-02-26T17:52:01;3.60;99.90
24103;DHT22;12278;53.058;9.028;2023-02-26T17:56:10;3.60;99.90
24103;DHT22;12278;53.058;9.028;2023-02-26T18:00:17;3.60;99.90
24103;DHT22;12278;53.058;9.028;2023-02-26T18:04:18;3.50;99.90
24103;DHT22;12278;53.058;9.028;2023-02-26T18:08:27;3.40;99.90
24103;DHT22;12278;53.058;9.028;2023-02-26T18:12:28;3.20;99.90
24103;DHT22;12278;53.058;9.028;2023-02-26T18:16:32;3.00;99.90
24103;DHT22;12278;53.058;9.028;2023-02-26T18:20:33;2.90;99.90
24103;DHT22;12278;53.058;9.028;2023-02-26T18:24:34;2.90;99.90
24103;DHT22;12278;53.058;9.028;2023-02-26T18:28:34;2.80;99.90
24103;DHT22;12278;53.058;9.028;2023-02-26T18:32:36;2.90;99.90
24103;DHT22;12278;53.058;9.028;2023-02-26T18:36:37;2.70;99.90
24103;DHT22;12278;53.058;9.028;2023-02-26T18:40:39;2.60;99.90
24103;DHT22;12278;53.058;9.028;2023-02-26T18:44:48;2.50;99.90
24103;DHT22;12278;53.058;9.028;2023-02-26T18:48:49;2.30;99.90
24103;DHT22;12278;53.058;9.028;2023-02-26T18:52:49;2.30;99.90
24103;DHT22;12278;53.058;9.028;2023-02-26T18:56:52;2.40;99.90
24103;DHT22;12278;53.058;9.028;2023-02-26T19:00:52;2.40;99.90
24103;DHT22;12278;53.058;9.028;2023-02-26T19:04:53;2.20;99.90
24103;DHT22;12278;53.058;9.028;2023-02-26T19:08:54;2.10;99.90
24103;DHT22;12278;53.058;9.028;2023-02-26T19:13:05;2.00;99.90
24103;DHT22;12278;53.058;9.028;2023-02-26T19:17:06;1.90;99.90
24103;DHT22;12278;53.058;9.028;2023-02-26T19:21:07;1.90;99.90
24103;DHT22;12278;53.058;9.028;2023-02-26T19:25:08;1.90;99.90
24103;DHT22;12278;53.058;9.028;2023-02-26T19:29:14;1.80;99.90
24103;DHT22;12278;53.058;9.028;2023-02-26T19:33:15;1.70;99.90
24103;DHT22;12278;53.058;9.028;2023-02-26T19:37:19;1.70;99.90
24103;DHT22;12278;53.058;9.028;2023-02-26T19:41:20;1.60;99.90
24103;DHT22;12278;53.058;9.028;2023-02-26T19:45:20;1.50;99.90
24103;DHT22;12278;53.058;9.028;2023-02-26T19:49:35;1.50;99.90
24103;DHT22;12278;53.058;9.028;2023-02-26T19:53:36;1.50;99.90
24103;DHT22;12278;53.058;9.028;2023-02-26T19:57:37;1.50;99.90
24103;DHT22;12278;53.058;9.028;2023-02-26T20:01:46;1.50;99.90
24103;DHT22;12278;53.058;9.028;2023-02-26T20:05:49;1.40;99.90
24103;DHT22;12278;53.058;9.028;2023-02-26T20:09:51;1.30;99.90
24103;DHT22;12278;53.058;9.028;2023-02-26T20:13:51;1.30;99.90
24103;DHT22;12278;53.058;9.028;2023-02-26T20:17:52;1.30;99.90
24103;DHT22;12278;53.058;9.028;2023-02-26T20:21:53;1.20;99.90
24103;DHT22;12278;53.058;9.028;2023-02-26T20:25:56;1.20;99.90
24103;DHT22;12278;53.058;9.028;2023-02-26T20:29:57;1.10;99.90
24103;DHT22;12278;53.058;9.028;2023-02-26T20:33:57;1.00;99.90
24103;DHT22;12278;53.058;9.028;2023-02-26T20:37:58;1.00;99.90
24103;DHT22;12278;53.058;9.028;2023-02-26T20:41:59;0.90;99.90
24103;DHT22;12278;53.058;9.028;2023-02-26T20:46:01;0.70;99.90
24103;DHT22;12278;53.058;9.028;2023-02-26T20:50:01;0.80;99.90
24103;DHT22;12278;53.058;9.028;2023-02-26T20:54:02;0.80;99.90
24103;DHT22;12278;53.058;9.028;2023-02-26T20:58:05;0.80;99.90
24103;DHT22;12278;53.058;9.028;2023-02-26T21:02:06;0.70;99.90
24103;DHT22;12278;53.058;9.028;2023-02-26T21:06:07;0.60;99.90
24103;DHT22;12278;53.058;9.028;2023-02-26T21:10:11;0.50;99.90
24103;DHT22;12278;53.058;9.028;2023-02-26T21:14:12;0.50;99.90
24103;DHT22;12278;53.058;9.028;2023-02-26T21:18:22;0.40;99.90
24103;DHT22;12278;53.058;9.028;2023-02-26T21:22:22;0.40;99.90
24103;DHT22;12278;53.058;9.028;2023-02-26T21:26:23;0.40;99.90
24103;DHT22;12278;53.058;9.028;2023-02-26T21:30:24;0.30;99.90
24103;DHT22;12278;53.058;9.028;2023-02-26T21:34:25;0.10;99.90
24103;DHT22;12278;53.058;9.028;2023-02-26T21:38:25;0.10;99.90
24103;DHT22;12278;53.058;9.028;2023-02-26T21:42:26;0.10;99.90
24103;DHT22;12278;53.058;9.028;2023-02-26T21:46:27;0.10;99.90
24103;DHT22;12278;53.058;9.028;2023-02-26T21:50:31;0.10;99.90
24103;DHT22;12278;53.058;9.028;2023-02-26T21:54:32;0.00;99.90
24103;DHT22;12278;53.058;9.028;2023-02-26T21:58:33;0.00;99.90
24103;DHT22;12278;53.058;9.028;2023-02-26T22:02:34;0.10;99.90
24103;DHT22;12278;53.058;9.028;2023-02-26T22:06:34;0.00;99.90
24103;DHT22;12278;53.058;9.028;2023-02-26T22:10:36;-0.10;99.90
24103;DHT22;12278;53.058;9.028;2023-02-26T22:14:37;-0.10;99.90
24103;DHT22;12278;53.058;9.028;2023-02-26T22:18:37;-0.20;99.90
24103;DHT22;12278;53.058;9.028;2023-02-26T22:22:38;-0.20;99.90
24103;DHT22;12278;53.058;9.028;2023-02-26T22:26:54;-0.20;99.90
24103;DHT22;12278;53.058;9.028;2023-02-26T22:30:55;-0.30;99.90
24103;DHT22;12278;53.058;9.028;2023-02-26T22:34:56;-0.30;99.90
24103;DHT22;12278;53.058;9.028;2023-02-26T22:38:57;-0.20;99.90
24103;DHT22;12278;53.058;9.028;2023-02-26T22:42:57;-0.20;99.90
24103;DHT22;12278;53.058;9.028;2023-02-26T22:46:58;-0.30;99.90
24103;DHT22;12278;53.058;9.028;2023-02-26T22:50:58;-0.40;99.90
24103;DHT22;12278;53.058;9.028;2023-02-26T22:55:00;-0.40;99.90
24103;DHT22;12278;53.058;9.028;2023-02-26T22:59:01;-0.40;99.90
24103;DHT22;12278;53.058;9.028;2023-02-26T23:03:02;-0.40;99.90
24103;DHT22;12278;53.058;9.028;2023-02-26T23:07:02;-0.40;99.90
24103;DHT22;12278;53.058;9.028;2023-02-26T23:11:06;-0.50;99.90
24103;DHT22;12278;53.058;9.028;2023-02-26T23:15:08;-0.60;99.90
24103;DHT22;12278;53.058;9.028;2023-02-26T23:19:14;-0.60;99.90
24103;DHT22;12278;53.058;9.028;2023-02-26T23:23:15;-0.60;99.90
24103;DHT22;12278;53.058;9.028;2023-02-26T23:27:16;-0.60;99.90
24103;DHT22;12278;53.058;9.028;2023-02-26T23:31:17;-0.60;99.90
24103;DHT22;12278;53.058;9.028;2023-02-26T23:35:17;-0.70;99.90
24103;DHT22;12278;53.058;9.028;2023-02-26T23:39:20;-0.70;99.90
24103;DHT22;12278;53.058;9.028;2023-02-26T23:43:21;-0.70;99.90
24103;DHT22;12278;53.058;9.028;2023-02-26T23:47:22;-0.80;99.90
24103;DHT22;12278;53.058;9.028;2023-02-26T23:51:23;-0.80;99.90
24103;DHT22;12278;53.058;9.028;2023-02-26T23:55:24;-0.90;99.90
24103;DHT22;12278;53.058;9.028;2023-02-26T23:59:25;-0.90;99.90
